createdAt,value
2017-12-20T00:02:35.324Z,31.77
2017-12-20T00:17:34.716Z,27.17
2017-12-20T00:32:34.632Z,38.10
2017-12-20T00:47:35.588Z,31.20
2017-12-20T01:02:34.497Z,34.73
2017-12-20T01:17:34.924Z,33.80
2017-12-20T01:32:34.861Z,26.93
2017-12-20T01:47:34.838Z,30.93
2017-12-20T02:02:34.789Z,29.87
2017-12-20T02:17:35.154Z,28.37
2017-12-20T02:32:35.158Z,22.23
2017-12-20T02:47:38.112Z,19.77
2017-12-20T03:02:36.935Z,20.15
2017-12-20T03:17:35.368Z,26.27
2017-12-20T03:32:35.259Z,35.97
2017-12-20T03:47:37.203Z,33.43
2017-12-20T04:02:35.151Z,32.47
2017-12-20T04:17:36.725Z,33.13
2017-12-20T04:32:36.715Z,29.30
2017-12-20T04:47:37.468Z,27.43
2017-12-20T05:02:38.327Z,27.77
2017-12-20T05:17:34.781Z,34.87
2017-12-20T05:32:36.693Z,30.27
2017-12-20T05:47:37.663Z,30.13
2017-12-20T06:02:35.520Z,34.43
2017-12-20T06:17:35.267Z,34.50
2017-12-20T06:32:34.887Z,40.03
2017-12-20T06:47:34.864Z,37.00
2017-12-20T07:02:35.776Z,35.63
2017-12-20T07:17:35.252Z,32.77
2017-12-20T07:32:35.129Z,31.20
2017-12-20T07:47:35.088Z,29.43
2017-12-20T08:02:34.760Z,33.90
2017-12-20T08:17:36.402Z,33.10
2017-12-20T08:32:40.519Z,26.00
2017-12-20T08:47:35.223Z,24.23
2017-12-20T09:02:38.209Z,28.83
2017-12-20T09:17:36.079Z,22.07
2017-12-20T09:32:34.503Z,21.43
2017-12-20T09:47:36.428Z,24.30
2017-12-20T10:02:34.336Z,21.00
2017-12-20T10:17:36.865Z,21.10
2017-12-20T10:32:34.905Z,16.80
2017-12-20T10:47:34.779Z,17.43
2017-12-20T11:02:34.547Z,19.43
2017-12-20T11:17:36.729Z,15.23
2017-12-20T11:32:36.599Z,16.20
2017-12-20T11:47:34.654Z,11.13
2017-12-20T12:02:34.564Z,13.07
2017-12-20T12:17:34.641Z,19.50
2017-12-20T12:32:35.491Z,16.70
2017-12-20T12:47:36.433Z,12.57
2017-12-20T13:02:36.172Z,14.67
2017-12-20T13:17:34.355Z,18.77
2017-12-20T13:32:36.518Z,13.67
2017-12-20T13:47:35.254Z,17.27
2017-12-20T14:02:34.340Z,16.70
2017-12-20T14:17:37.135Z,16.60
2017-12-20T14:32:35.191Z,17.40
2017-12-20T14:47:35.226Z,14.80
2017-12-20T15:02:36.847Z,15.30
2017-12-20T15:17:34.988Z,15.53
2017-12-20T15:32:35.472Z,18.53
2017-12-20T15:47:34.961Z,21.10
2017-12-20T16:02:34.856Z,21.45
2017-12-20T16:17:34.875Z,16.87
2017-12-20T16:32:37.168Z,14.65
2017-12-20T16:47:39.331Z,23.58
2017-12-20T17:02:35.053Z,27.77
2017-12-20T17:17:35.183Z,22.58
2017-12-20T17:32:35.545Z,25.25
2017-12-20T17:47:35.967Z,21.95
2017-12-20T18:02:34.892Z,17.45
2017-12-20T18:17:36.294Z,14.82
2017-12-20T18:47:39.518Z,15.40
2017-12-20T19:02:37.178Z,17.50
2017-12-20T19:17:40.301Z,16.08
2017-12-20T19:32:34.483Z,18.23
2017-12-20T19:47:35.400Z,16.85
2017-12-20T20:02:48.653Z,20.05
2017-12-20T20:17:35.994Z,17.98
2017-12-20T20:32:34.651Z,18.83
2017-12-20T20:47:36.544Z,17.00
2017-12-20T21:02:34.528Z,17.17
2017-12-20T21:17:34.997Z,17.15
2017-12-20T21:32:34.910Z,16.23
2017-12-20T21:47:34.769Z,15.73
2017-12-20T22:02:36.490Z,19.35
2017-12-20T22:17:38.264Z,16.48
2017-12-20T22:32:36.064Z,17.62
2017-12-20T22:47:34.307Z,16.05
2017-12-20T23:02:35.022Z,14.93
2017-12-20T23:17:34.380Z,17.42
2017-12-20T23:32:34.841Z,12.35
2017-12-20T23:47:35.172Z,12.23
